createdAt,value
2023-01-31T00:01:42.852Z,0.33
2023-01-31T00:04:12.986Z,0.20
2023-01-31T00:06:43.177Z,0.20
2023-01-31T00:09:14.271Z,0.27
2023-01-31T00:11:42.785Z,0.17
2023-01-31T00:14:11.572Z,0.20
2023-01-31T00:16:40.104Z,0.40
2023-01-31T00:19:08.610Z,0.13
2023-01-31T00:21:37.413Z,0.20
2023-01-31T00:24:06.445Z,0.20
2023-01-31T00:26:37.361Z,0.10
2023-01-31T00:29:07.151Z,0.10
2023-01-31T00:31:36.648Z,0.10
2023-01-31T00:34:05.597Z,0.10
2023-01-31T00:36:35.965Z,0.17
2023-01-31T00:39:06.844Z,0.10
2023-01-31T00:41:38.483Z,0.20
2023-01-31T00:44:07.546Z,0.20
2023-01-31T00:46:36.785Z,0.13
2023-01-31T00:49:06.052Z,0.20
2023-01-31T00:51:35.217Z,0.30
2023-01-31T00:54:03.822Z,0.30
2023-01-31T00:56:32.386Z,0.20
2023-01-31T00:59:04.429Z,0.30
2023-01-31T01:01:33.408Z,0.17
2023-01-31T01:04:01.994Z,0.20
2023-01-31T01:06:30.659Z,0.30
2023-01-31T01:09:00.425Z,0.30
2023-01-31T01:11:31.025Z,0.20
2023-01-31T01:14:02.048Z,0.27
2023-01-31T01:16:34.319Z,0.10
2023-01-31T01:19:04.050Z,0.23
2023-01-31T01:21:39.429Z,0.27
2023-01-31T01:24:10.196Z,0.33
2023-01-31T01:26:38.867Z,0.27
2023-01-31T01:29:09.204Z,0.10
2023-01-31T01:31:39.497Z,0.20
2023-01-31T01:34:12.115Z,0.07
2023-01-31T01:36:41.460Z,0.30
2023-01-31T01:39:12.904Z,0.40
2023-01-31T01:41:42.024Z,0.17
2023-01-31T01:44:43.625Z,0.43
2023-01-31T01:47:21.509Z,0.53
2023-01-31T01:49:54.505Z,0.80
2023-01-31T01:52:24.806Z,0.90
2023-01-31T01:54:56.427Z,0.90
2023-01-31T01:57:28.081Z,0.83
2023-01-31T02:00:03.190Z,0.80
2023-01-31T02:02:33.093Z,0.83
2023-01-31T02:05:01.721Z,1.13
2023-01-31T02:07:30.500Z,1.10
2023-01-31T02:10:02.938Z,1.00
2023-01-31T02:12:32.221Z,1.07
2023-01-31T02:15:00.743Z,1.10
2023-01-31T02:17:29.388Z,0.80
2023-01-31T02:20:42.816Z,1.00
2023-01-31T02:23:37.169Z,0.90
2023-01-31T02:26:33.426Z,0.63
2023-01-31T02:29:24.226Z,0.80
2023-01-31T02:32:34.785Z,0.50
2023-01-31T02:35:11.256Z,0.40
2023-01-31T02:37:45.854Z,0.57
2023-01-31T02:40:20.722Z,0.50
2023-01-31T02:42:55.192Z,0.43
2023-01-31T02:45:31.149Z,0.50
2023-01-31T02:48:10.012Z,0.50
2023-01-31T02:50:45.511Z,0.60
2023-01-31T02:53:17.575Z,0.50
2023-01-31T02:56:10.609Z,0.60
2023-01-31T02:58:40.280Z,0.50
2023-01-31T03:01:10.922Z,0.53
2023-01-31T03:03:40.860Z,0.50
2023-01-31T03:06:54.364Z,0.60
2023-01-31T03:09:31.678Z,0.40
2023-01-31T03:12:09.783Z,0.57
2023-01-31T03:14:46.229Z,0.37
2023-01-31T03:17:33.911Z,0.40
2023-01-31T03:20:08.341Z,0.47
2023-01-31T03:22:38.912Z,0.40
2023-01-31T03:25:09.504Z,0.20
2023-01-31T03:27:39.390Z,1.00
2023-01-31T03:30:12.956Z,0.70
2023-01-31T03:32:45.181Z,0.60
2023-01-31T03:35:15.603Z,0.40
2023-01-31T03:37:50.523Z,0.40
2023-01-31T03:40:23.650Z,0.37
2023-01-31T03:42:57.591Z,0.40
2023-01-31T03:45:31.570Z,0.30
2023-01-31T03:48:02.761Z,0.50
2023-01-31T03:50:38.654Z,1.07
2023-01-31T03:53:11.632Z,2.07
2023-01-31T03:55:44.739Z,0.97
2023-01-31T03:58:14.461Z,1.00
2023-01-31T04:00:44.693Z,4.90
2023-01-31T04:03:16.648Z,2.90
2023-01-31T04:05:46.654Z,2.80
2023-01-31T04:08:15.245Z,2.53
2023-01-31T04:10:44.022Z,2.23
2023-01-31T04:13:12.663Z,3.17
2023-01-31T04:15:41.268Z,6.23
2023-01-31T04:18:09.838Z,5.57
2023-01-31T04:20:38.426Z,6.17
2023-01-31T04:23:08.414Z,4.93
2023-01-31T04:25:36.949Z,3.00
2023-01-31T04:28:05.829Z,2.67
2023-01-31T04:30:34.368Z,3.10
2023-01-31T04:33:02.962Z,3.23
2023-01-31T04:35:32.037Z,4.27
2023-01-31T04:38:00.662Z,12.90
2023-01-31T04:40:30.664Z,6.83
2023-01-31T04:42:59.184Z,7.47
2023-01-31T04:45:27.675Z,12.17
2023-01-31T04:47:56.151Z,13.70
2023-01-31T04:50:24.663Z,15.10
2023-01-31T04:52:53.560Z,12.80
2023-01-31T04:55:22.396Z,12.80
2023-01-31T04:57:52.457Z,14.33
2023-01-31T05:00:21.750Z,14.67
2023-01-31T05:02:50.461Z,10.17
2023-01-31T05:05:19.485Z,5.70
2023-01-31T05:07:48.314Z,5.97
2023-01-31T05:10:18.230Z,4.73
2023-01-31T05:12:47.619Z,4.97
2023-01-31T05:15:18.409Z,5.80
2023-01-31T05:17:48.636Z,5.53
2023-01-31T05:20:17.667Z,5.77
2023-01-31T05:22:48.476Z,8.17
2023-01-31T05:25:17.183Z,5.50
2023-01-31T05:27:45.790Z,6.17
2023-01-31T05:30:14.821Z,6.23
2023-01-31T05:32:45.964Z,5.97
2023-01-31T05:35:14.724Z,6.80
2023-01-31T05:37:43.573Z,6.80
2023-01-31T05:40:13.249Z,7.70
2023-01-31T05:42:41.968Z,6.63
2023-01-31T05:45:16.693Z,6.10
2023-01-31T05:47:48.030Z,5.77
2023-01-31T05:50:16.670Z,6.43
2023-01-31T05:52:45.316Z,6.50
2023-01-31T05:55:13.820Z,6.47
2023-01-31T05:57:42.343Z,11.00
2023-01-31T06:00:12.118Z,9.43
2023-01-31T06:02:40.688Z,4.03
2023-01-31T06:05:11.195Z,4.30
2023-01-31T06:07:40.084Z,4.30
2023-01-31T06:10:10.891Z,4.70
2023-01-31T06:12:39.465Z,4.10
2023-01-31T06:15:08.911Z,4.00
2023-01-31T06:17:37.491Z,3.20
2023-01-31T06:20:07.205Z,7.50
2023-01-31T06:22:37.112Z,6.93
2023-01-31T06:25:06.652Z,4.03
2023-01-31T06:27:35.571Z,4.20
2023-01-31T06:30:04.170Z,3.70
2023-01-31T06:32:33.540Z,5.33
2023-01-31T06:35:02.037Z,6.70
2023-01-31T06:37:30.622Z,7.27
2023-01-31T06:40:00.733Z,6.30
2023-01-31T06:42:29.263Z,6.80
2023-01-31T06:44:57.823Z,6.10
2023-01-31T06:47:26.436Z,5.23
2023-01-31T06:49:54.963Z,5.53
2023-01-31T06:52:23.456Z,3.80
2023-01-31T06:54:55.202Z,2.00
2023-01-31T06:57:25.189Z,2.60
2023-01-31T06:59:53.716Z,1.20
2023-01-31T07:02:22.283Z,1.10
2023-01-31T07:04:50.818Z,0.90
2023-01-31T07:07:19.529Z,1.20
2023-01-31T07:09:48.156Z,0.80
2023-01-31T07:12:16.760Z,0.90
2023-01-31T07:14:46.638Z,1.07
2023-01-31T07:17:15.172Z,1.00
2023-01-31T07:19:43.746Z,0.60
2023-01-31T07:22:12.278Z,0.60
2023-01-31T07:24:40.795Z,0.93
2023-01-31T07:27:09.345Z,0.67
2023-01-31T07:29:38.484Z,3.30
2023-01-31T07:32:08.580Z,0.90
2023-01-31T07:34:37.136Z,1.30
2023-01-31T07:37:05.692Z,1.17
2023-01-31T07:39:34.272Z,0.97
2023-01-31T07:42:02.816Z,0.90
2023-01-31T07:44:31.318Z,0.70
2023-01-31T07:47:00.019Z,0.60
2023-01-31T07:49:29.893Z,0.80
2023-01-31T07:51:58.520Z,0.97
2023-01-31T07:54:27.028Z,0.80
2023-01-31T07:56:55.512Z,3.73
2023-01-31T07:59:24.020Z,1.63
2023-01-31T08:02:09.956Z,0.90
2023-01-31T08:04:39.844Z,0.93
2023-01-31T08:07:10.230Z,0.80
2023-01-31T08:09:39.514Z,1.00
2023-01-31T08:12:08.676Z,1.10
2023-01-31T08:14:37.334Z,1.97
2023-01-31T08:17:08.314Z,1.20
2023-01-31T08:19:37.015Z,0.80
2023-01-31T08:22:08.399Z,0.87
2023-01-31T08:24:36.897Z,1.20
2023-01-31T08:27:05.610Z,2.10
2023-01-31T08:29:34.237Z,0.90
2023-01-31T08:32:03.260Z,0.70
2023-01-31T08:34:31.916Z,0.70
2023-01-31T08:37:01.060Z,0.70
2023-01-31T08:39:31.023Z,1.00
2023-01-31T08:41:59.663Z,0.77
2023-01-31T08:44:28.275Z,2.30
2023-01-31T08:46:56.852Z,0.73
2023-01-31T08:49:25.520Z,2.20
2023-01-31T08:51:54.107Z,2.10
2023-01-31T08:54:22.600Z,1.63
2023-01-31T08:56:52.545Z,0.90
2023-01-31T08:59:21.095Z,1.70
2023-01-31T09:01:49.667Z,2.10
2023-01-31T09:04:18.323Z,2.33
2023-01-31T09:06:46.826Z,1.50
2023-01-31T09:09:15.447Z,1.40
2023-01-31T09:11:43.951Z,1.27
2023-01-31T09:14:13.897Z,1.20
2023-01-31T09:16:43.598Z,1.17
2023-01-31T09:19:12.235Z,1.37
2023-01-31T09:21:40.729Z,1.10
2023-01-31T09:24:11.978Z,1.00
2023-01-31T09:26:40.511Z,1.10
2023-01-31T09:29:09.047Z,1.10
2023-01-31T09:31:38.984Z,0.93
2023-01-31T09:34:07.585Z,1.00
2023-01-31T09:36:36.106Z,1.10
2023-01-31T09:39:04.710Z,1.00
2023-01-31T09:41:37.166Z,1.17
2023-01-31T09:44:08.312Z,1.10
2023-01-31T09:46:41.414Z,0.87
2023-01-31T09:49:15.807Z,1.27
2023-01-31T09:51:45.113Z,0.90
2023-01-31T09:54:20.704Z,1.43
2023-01-31T09:56:56.336Z,2.27
2023-01-31T09:59:27.309Z,1.30
2023-01-31T10:02:04.348Z,1.23
2023-01-31T10:04:44.220Z,0.87
2023-01-31T10:07:17.161Z,1.00
2023-01-31T10:09:50.141Z,1.23
2023-01-31T10:12:21.656Z,0.80
2023-01-31T10:14:54.012Z,0.90
2023-01-31T10:17:28.108Z,2.00
2023-01-31T10:19:58.302Z,1.30
2023-01-31T10:22:33.529Z,2.00
2023-01-31T10:25:09.376Z,5.37
2023-01-31T10:27:42.147Z,3.00
2023-01-31T10:30:16.929Z,1.27
2023-01-31T10:32:48.875Z,1.07
2023-01-31T10:35:21.904Z,1.10
2023-01-31T10:37:53.257Z,0.80
2023-01-31T10:40:26.213Z,0.80
2023-01-31T10:42:56.519Z,1.10
2023-01-31T10:45:31.398Z,1.00
2023-01-31T10:48:13.973Z,1.00
2023-01-31T10:50:49.567Z,0.70
2023-01-31T10:53:55.445Z,0.97
2023-01-31T10:56:35.610Z,1.27
2023-01-31T10:59:06.816Z,1.03
2023-01-31T11:01:36.893Z,1.03
2023-01-31T11:04:27.790Z,4.23
2023-01-31T11:06:56.444Z,7.80
2023-01-31T11:09:25.828Z,2.30
2023-01-31T11:11:57.205Z,1.30
2023-01-31T11:14:25.786Z,1.20
2023-01-31T11:17:01.107Z,1.10
2023-01-31T11:19:36.544Z,0.80
2023-01-31T11:22:05.761Z,1.13
2023-01-31T11:24:35.765Z,0.80
2023-01-31T11:27:07.081Z,1.60
2023-01-31T11:29:38.666Z,1.33
2023-01-31T11:32:23.582Z,1.20
2023-01-31T11:35:01.051Z,1.20
2023-01-31T11:37:31.118Z,1.40
2023-01-31T11:40:02.478Z,0.90
2023-01-31T11:42:31.215Z,1.20
2023-01-31T11:45:01.424Z,1.23
2023-01-31T11:47:35.649Z,1.17
2023-01-31T11:50:06.452Z,1.40
2023-01-31T11:52:36.056Z,1.40
2023-01-31T11:55:08.107Z,1.40
2023-01-31T11:57:38.344Z,1.23
2023-01-31T12:00:09.728Z,1.40
2023-01-31T12:02:40.660Z,1.27
2023-01-31T12:05:13.203Z,1.40
2023-01-31T12:07:47.392Z,1.00
2023-01-31T12:10:29.322Z,1.13
2023-01-31T12:13:12.625Z,1.30
2023-01-31T12:15:55.944Z,1.20
2023-01-31T12:18:39.922Z,1.40
2023-01-31T12:21:15.431Z,1.27
2023-01-31T12:23:53.737Z,1.30
2023-01-31T12:26:29.820Z,1.37
2023-01-31T12:29:11.884Z,1.20
2023-01-31T12:32:02.599Z,1.70
2023-01-31T12:34:59.095Z,1.60
2023-01-31T12:37:39.122Z,1.47
2023-01-31T12:40:25.632Z,1.47
2023-01-31T12:42:59.048Z,1.47
2023-01-31T12:45:43.868Z,1.40
2023-01-31T12:48:21.940Z,1.50
2023-01-31T12:50:53.272Z,1.90
2023-01-31T12:53:59.485Z,1.10
2023-01-31T12:56:46.447Z,4.93
2023-01-31T12:59:33.274Z,1.40
2023-01-31T13:02:10.753Z,1.10
2023-01-31T13:04:44.826Z,1.20
2023-01-31T13:07:17.579Z,1.20
2023-01-31T13:09:48.084Z,1.00
2023-01-31T13:12:19.900Z,1.27
2023-01-31T13:14:51.636Z,1.70
2023-01-31T13:17:25.369Z,1.33
2023-01-31T13:19:57.517Z,1.00
2023-01-31T13:22:34.539Z,1.37
2023-01-31T13:25:13.536Z,1.40
2023-01-31T13:27:45.319Z,0.80
2023-01-31T13:30:19.055Z,0.90
2023-01-31T13:32:49.767Z,1.00
2023-01-31T13:35:22.504Z,0.90
2023-01-31T13:37:55.013Z,1.00
2023-01-31T13:40:27.474Z,1.00
2023-01-31T13:42:56.647Z,1.00
2023-01-31T13:45:28.107Z,1.27
2023-01-31T13:48:01.828Z,2.37
2023-01-31T13:50:35.668Z,1.60
2023-01-31T13:53:07.631Z,1.90
2023-01-31T13:55:39.631Z,2.00
2023-01-31T13:58:09.815Z,1.80
2023-01-31T14:00:41.452Z,1.30
2023-01-31T14:03:11.553Z,1.40
2023-01-31T14:06:04.308Z,2.03
2023-01-31T14:08:38.608Z,1.50
2023-01-31T14:11:35.531Z,1.33
2023-01-31T14:14:19.386Z,1.10
2023-01-31T14:16:51.749Z,1.10
2023-01-31T14:20:03.386Z,1.47
2023-01-31T14:22:35.035Z,3.83
2023-01-31T14:25:07.790Z,3.97
2023-01-31T14:27:43.677Z,2.03
2023-01-31T14:30:28.428Z,1.60
2023-01-31T14:33:17.791Z,1.53
2023-01-31T14:36:19.895Z,1.47
2023-01-31T14:39:09.577Z,1.50
2023-01-31T14:41:51.653Z,1.40
2023-01-31T14:44:30.761Z,1.53
2023-01-31T14:47:10.301Z,1.13
2023-01-31T14:50:03.167Z,1.30
2023-01-31T14:52:56.441Z,1.60
2023-01-31T14:55:33.045Z,1.60
2023-01-31T14:58:03.299Z,1.57
2023-01-31T15:00:34.831Z,2.13
2023-01-31T15:03:09.214Z,4.00
2023-01-31T15:05:44.554Z,2.77
2023-01-31T15:08:35.594Z,3.70
2023-01-31T15:11:06.698Z,3.10
2023-01-31T15:13:47.465Z,2.23
2023-01-31T15:16:23.232Z,1.83
2023-01-31T15:18:55.201Z,2.13
2023-01-31T15:21:26.990Z,1.63
2023-01-31T15:23:56.078Z,2.07
2023-01-31T15:26:25.665Z,2.40
2023-01-31T15:28:54.699Z,2.30
2023-01-31T15:31:29.229Z,1.87
2023-01-31T15:34:01.589Z,1.60
2023-01-31T15:36:34.137Z,2.43
2023-01-31T15:39:07.469Z,2.50
2023-01-31T15:41:40.699Z,6.27
2023-01-31T15:44:14.563Z,4.33
2023-01-31T15:46:45.556Z,5.50
2023-01-31T15:49:38.409Z,5.80
2023-01-31T15:52:13.972Z,7.50
2023-01-31T15:54:53.487Z,6.63
2023-01-31T15:57:27.265Z,6.27
2023-01-31T15:59:56.801Z,3.70
2023-01-31T16:02:30.885Z,2.47
2023-01-31T16:04:59.516Z,2.30
2023-01-31T16:07:31.672Z,2.63
2023-01-31T16:10:02.944Z,4.97
2023-01-31T16:12:33.845Z,13.70
2023-01-31T16:15:07.345Z,25.97
2023-01-31T16:17:37.513Z,53.57
2023-01-31T16:20:07.237Z,43.73
2023-01-31T16:22:35.867Z,26.53
2023-01-31T16:25:06.247Z,8.10
2023-01-31T16:27:38.105Z,4.20
2023-01-31T16:30:07.670Z,4.30
2023-01-31T16:32:41.207Z,4.77
2023-01-31T16:35:24.722Z,6.97
2023-01-31T16:38:04.039Z,11.43
2023-01-31T16:40:36.485Z,9.83
2023-01-31T16:43:15.072Z,15.87
2023-01-31T16:45:52.538Z,13.23
2023-01-31T16:48:25.000Z,9.70
2023-01-31T16:50:54.398Z,9.03
2023-01-31T16:53:33.177Z,8.87
2023-01-31T16:56:22.574Z,9.63
2023-01-31T16:58:53.905Z,6.60
2023-01-31T17:01:25.340Z,6.87
2023-01-31T17:04:17.515Z,6.80
2023-01-31T17:06:50.265Z,7.47
2023-01-31T17:09:22.539Z,7.20
2023-01-31T17:11:51.482Z,7.23
2023-01-31T17:14:20.008Z,8.00
2023-01-31T17:16:52.024Z,10.60
2023-01-31T17:19:23.493Z,10.33
2023-01-31T17:21:55.217Z,9.63
2023-01-31T17:24:23.940Z,12.03
2023-01-31T17:26:53.926Z,11.57
2023-01-31T17:29:23.339Z,8.37
2023-01-31T17:31:54.492Z,8.37
2023-01-31T17:34:26.650Z,7.80
2023-01-31T17:36:58.456Z,7.47
2023-01-31T17:39:27.368Z,7.93
2023-01-31T17:41:55.957Z,6.90
2023-01-31T17:44:24.827Z,6.73
2023-01-31T17:46:53.436Z,6.70
2023-01-31T17:49:21.979Z,6.77
2023-01-31T17:51:52.096Z,6.73
2023-01-31T17:54:20.733Z,7.20
2023-01-31T17:56:51.087Z,6.57
2023-01-31T17:59:26.845Z,8.73
2023-01-31T18:01:57.248Z,9.47
2023-01-31T18:04:25.898Z,8.40
2023-01-31T18:06:56.123Z,9.07
2023-01-31T18:09:25.821Z,7.90
2023-01-31T18:11:54.339Z,6.27
2023-01-31T18:14:23.091Z,7.57
2023-01-31T18:16:54.080Z,7.03
2023-01-31T18:19:23.101Z,7.53
2023-01-31T18:21:55.249Z,8.03
2023-01-31T18:24:27.057Z,5.30
2023-01-31T18:26:57.150Z,4.63
2023-01-31T18:29:26.484Z,7.50
2023-01-31T18:31:57.926Z,9.20
2023-01-31T18:34:26.766Z,6.17
2023-01-31T18:36:55.348Z,7.23
2023-01-31T18:39:25.396Z,5.97
2023-01-31T18:41:54.354Z,4.23
2023-01-31T18:44:22.948Z,4.70
2023-01-31T18:46:51.955Z,4.33
2023-01-31T18:49:20.559Z,8.37
2023-01-31T18:51:49.971Z,8.70
2023-01-31T18:54:21.286Z,7.00
2023-01-31T18:56:51.226Z,5.80
2023-01-31T18:59:19.928Z,5.90
2023-01-31T19:01:48.470Z,5.70
2023-01-31T19:04:17.462Z,4.83
2023-01-31T19:06:46.204Z,5.13
2023-01-31T19:09:15.010Z,4.97
2023-01-31T19:11:43.652Z,5.70
2023-01-31T19:14:15.290Z,7.47
2023-01-31T19:16:44.955Z,7.83
2023-01-31T19:19:13.766Z,8.53
2023-01-31T19:21:42.856Z,7.60
2023-01-31T19:24:15.388Z,7.23
2023-01-31T19:26:44.758Z,7.60
2023-01-31T19:29:16.737Z,12.10
2023-01-31T19:31:46.068Z,16.53
2023-01-31T19:34:14.855Z,15.60
2023-01-31T19:36:46.553Z,9.97
2023-01-31T19:39:15.302Z,9.93
2023-01-31T19:41:44.073Z,9.17
2023-01-31T19:44:13.178Z,11.53
2023-01-31T19:46:44.072Z,8.17
2023-01-31T19:49:12.881Z,8.57
2023-01-31T19:51:42.631Z,13.47
2023-01-31T19:54:15.193Z,12.13
2023-01-31T19:56:43.839Z,13.50
2023-01-31T19:59:12.908Z,12.40
2023-01-31T20:01:42.810Z,10.83
2023-01-31T20:04:11.354Z,9.07
2023-01-31T20:06:40.143Z,8.50
2023-01-31T20:09:16.039Z,9.83
2023-01-31T20:11:44.807Z,10.13
2023-01-31T20:14:13.552Z,10.57
2023-01-31T20:16:43.887Z,38.30
2023-01-31T20:19:12.762Z,17.60
2023-01-31T20:21:43.860Z,12.43
2023-01-31T20:24:13.836Z,26.10
2023-01-31T20:26:42.419Z,24.83
2023-01-31T20:29:12.325Z,12.37
2023-01-31T20:31:41.328Z,8.90
2023-01-31T20:34:11.691Z,8.10
2023-01-31T20:36:40.741Z,8.10
2023-01-31T20:39:09.355Z,6.70
2023-01-31T20:41:39.184Z,10.10
2023-01-31T20:44:07.754Z,10.97
2023-01-31T20:46:36.390Z,10.07
2023-01-31T20:49:04.931Z,9.73
2023-01-31T20:51:34.881Z,9.83
2023-01-31T20:54:03.947Z,9.60
2023-01-31T20:56:32.778Z,9.50
2023-01-31T20:59:01.507Z,9.93
2023-01-31T21:01:30.219Z,8.50
2023-01-31T21:03:59.145Z,9.30
2023-01-31T21:06:30.764Z,8.07
2023-01-31T21:09:00.693Z,9.30
2023-01-31T21:11:29.190Z,9.80
2023-01-31T21:13:57.772Z,9.00
2023-01-31T21:16:26.276Z,8.60
2023-01-31T21:18:56.521Z,10.43
2023-01-31T21:21:25.351Z,16.53
2023-01-31T21:23:55.058Z,14.67
2023-01-31T21:26:26.862Z,9.83
2023-01-31T21:28:55.767Z,7.67
2023-01-31T21:31:24.359Z,7.33
2023-01-31T21:33:53.516Z,7.43
2023-01-31T21:36:23.759Z,8.57
2023-01-31T21:38:52.338Z,9.27
2023-01-31T21:41:38.304Z,9.37
2023-01-31T21:44:08.271Z,14.27
2023-01-31T21:46:36.921Z,17.27
2023-01-31T21:49:07.238Z,15.97
2023-01-31T21:51:35.955Z,10.40
2023-01-31T21:54:04.610Z,7.77
2023-01-31T21:56:33.184Z,7.80
2023-01-31T21:59:01.807Z,6.37
2023-01-31T22:01:33.107Z,5.97
2023-01-31T22:04:02.153Z,7.23
2023-01-31T22:06:35.261Z,7.00
2023-01-31T22:09:04.844Z,7.27
2023-01-31T22:11:35.334Z,7.37
2023-01-31T22:14:05.847Z,6.10
2023-01-31T22:16:37.313Z,6.70
2023-01-31T22:19:06.281Z,7.00
2023-01-31T22:21:36.017Z,6.90
2023-01-31T22:24:06.719Z,6.40
2023-01-31T22:26:36.571Z,6.63
2023-01-31T22:29:06.709Z,6.20
2023-01-31T22:31:36.911Z,6.37
2023-01-31T22:34:05.803Z,5.50
2023-01-31T22:36:34.888Z,7.00
2023-01-31T22:39:03.688Z,7.20
2023-01-31T22:41:32.923Z,7.67
2023-01-31T22:44:01.510Z,7.17
2023-01-31T22:46:30.609Z,7.07
2023-01-31T22:49:00.509Z,9.63
2023-01-31T22:51:29.935Z,10.50
2023-01-31T22:53:59.509Z,10.73
2023-01-31T22:56:30.282Z,10.97
2023-01-31T22:59:00.135Z,11.10
2023-01-31T23:01:30.388Z,10.23
2023-01-31T23:04:01.545Z,10.07
2023-01-31T23:06:30.583Z,9.93
2023-01-31T23:08:59.375Z,9.23
2023-01-31T23:11:28.044Z,9.77
2023-01-31T23:13:57.742Z,10.40
2023-01-31T23:16:47.946Z,10.10
2023-01-31T23:19:17.981Z,10.20
2023-01-31T23:21:48.888Z,9.47
2023-01-31T23:24:19.096Z,9.80
2023-01-31T23:26:47.786Z,9.47
2023-01-31T23:29:16.403Z,9.43
2023-01-31T23:31:46.111Z,8.70
2023-01-31T23:34:14.919Z,9.03
2023-01-31T23:36:44.880Z,8.80
2023-01-31T23:39:13.521Z,9.30
2023-01-31T23:41:41.986Z,8.93
2023-01-31T23:44:10.639Z,8.20
2023-01-31T23:46:39.235Z,7.77
2023-01-31T23:49:08.014Z,7.53
2023-01-31T23:51:36.583Z,8.07
2023-01-31T23:54:06.748Z,8.43
2023-01-31T23:56:35.239Z,9.10
2023-01-31T23:59:04.801Z,8.77
